Time;durP1;ratioP1;P1;durP2;ratioP2;P2;SDS_P1;SDS_P2;PMS_P1;PMS_P2;Temp;Humidity;BMP_temperature;BMP_pressure;BME280_temperature;BME280_humidity;BME280_pressure;Samples;Min_cycle;Max_cycle;Signal;HPM_P1;HPM_P2
2023/09/10 00:00:29;;;;;;;0.30;0.30;;;;;;;20.25;77.34;97057.97;29395;209;63005;-54
2023/09/10 00:01:02;;;;;;;0.30;0.30;;;;;;;20.25;77.64;97060.72;29395;224;63009;-54
2023/09/10 00:01:34;;;;;;;0.30;0.30;;;;;;;20.24;77.70;97046.13;29395;233;63004;-72
2023/09/10 00:02:05;;;;;;;0.30;0.30;;;;;;;20.24;77.61;97043.37;29395;206;63009;-54
2023/09/10 00:02:36;;;;;;;0.30;0.30;;;;;;;20.25;77.61;97053.25;29395;231;63004;-54
2023/09/10 00:03:08;;;;;;;0.30;0.30;;;;;;;20.25;77.32;97049.69;29395;199;63014;-54
2023/09/10 00:03:39;;;;;;;0.30;0.30;;;;;;;20.25;77.57;97049.69;29395;240;63004;-54
2023/09/10 00:04:10;;;;;;;0.30;0.30;;;;;;;20.24;77.73;97048.09;29395;248;63026;-55
2023/09/10 00:04:41;;;;;;;0.30;0.30;;;;;;;20.23;78.09;97049.25;29394;234;64009;-54
2023/09/10 00:05:13;;;;;;;0.30;0.30;;;;;;;20.21;78.64;97046.84;29395;234;63009;-53
2023/09/10 00:05:44;;;;;;;0.30;0.30;;;;;;;20.20;78.50;97052.69;29395;203;63005;-54
2023/09/10 00:06:15;;;;;;;0.30;0.30;;;;;;;20.19;78.45;97053.84;29395;228;63009;-54
2023/09/10 00:06:47;;;;;;;0.30;0.30;;;;;;;20.17;78.29;97045.94;29395;203;63005;-54
2023/09/10 00:07:18;;;;;;;0.30;0.30;;;;;;;20.16;78.48;97057.31;29395;225;63009;-55
2023/09/10 00:07:49;;;;;;;0.30;0.30;;;;;;;20.15;78.37;97052.94;29395;252;63005;-54
2023/09/10 00:08:21;;;;;;;0.30;0.30;;;;;;;20.14;78.49;97057.66;29395;218;63009;-54
2023/09/10 00:08:53;;;;;;;0.30;0.30;;;;;;;20.14;78.68;97056.84;29395;207;63004;-54
2023/09/10 00:09:24;;;;;;;0.30;0.30;;;;;;;20.13;78.54;97060.75;29395;202;63009;-54
2023/09/10 00:09:55;;;;;;;0.30;0.30;;;;;;;20.12;78.59;97059.16;29394;220;64009;-54
2023/09/10 00:10:27;;;;;;;0.30;0.30;;;;;;;20.11;78.72;97057.56;29395;266;63004;-54
2023/09/10 00:10:58;;;;;;;0.30;0.30;;;;;;;20.11;79.02;97057.56;29395;215;63004;-54
2023/09/10 00:11:29;;;;;;;0.30;0.30;;;;;;;20.11;79.08;97052.84;29395;343;63008;-53
2023/09/10 00:12:00;;;;;;;0.30;0.30;;;;;;;20.10;79.05;97061.50;29395;256;63004;-54
2023/09/10 00:12:32;;;;;;;0.30;0.30;;;;;;;20.10;78.75;97055.97;29394;256;64014;-54
2023/09/10 00:13:03;;;;;;;0.30;0.30;;;;;;;20.09;79.02;97060.69;29395;246;63005;-54
2023/09/10 00:13:35;;;;;;;0.30;0.30;;;;;;;20.08;79.08;97059.87;29395;227;63009;-54
2023/09/10 00:14:07;;;;;;;0.30;0.30;;;;;;;20.08;79.11;97053.56;29395;244;63005;-54
2023/09/10 00:14:38;;;;;;;0.30;0.30;;;;;;;20.08;79.21;97062.62;29395;220;63009;-54
2023/09/10 00:15:10;;;;;;;0.30;0.30;;;;;;;20.08;79.22;97062.62;29395;220;63005;-54
2023/09/10 00:15:41;;;;;;;0.30;0.30;;;;;;;20.08;78.77;97059.09;29395;294;63009;-55
2023/09/10 00:16:12;;;;;;;0.30;0.30;;;;;;;20.09;78.94;97060.69;29394;197;64009;-54
2023/09/10 00:16:44;;;;;;;0.30;0.30;;;;;;;20.08;78.61;97057.13;29395;218;63004;-54
2023/09/10 00:17:15;;;;;;;0.30;0.30;;;;;;;20.11;78.44;97063.06;29395;196;63004;-54
2023/09/10 00:17:46;;;;;;;0.30;0.30;;;;;;;20.12;78.07;97061.91;29395;206;63009;-53
2023/09/10 00:18:19;;;;;;;0.30;0.30;;;;;;;20.13;77.98;97061.56;29395;262;63004;-71
2023/09/10 00:18:50;;;;;;;0.30;0.30;;;;;;;20.14;77.83;97059.59;29395;240;63009;-54
2023/09/10 00:19:22;;;;;;;0.30;0.30;;;;;;;20.15;77.54;97061.22;29394;208;64008;-54
2023/09/10 00:19:53;;;;;;;0.30;0.30;;;;;;;20.16;77.35;97057.31;29395;237;63009;-54
2023/09/10 00:20:26;;;;;;;0.30;0.30;;;;;;;20.17;77.32;97061.66;29394;227;64013;-54
2023/09/10 00:20:58;;;;;;;0.30;0.30;;;;;;;20.17;78.46;97056.16;29395;220;63009;-54
2023/09/10 00:21:29;;;;;;;0.30;0.30;;;;;;;20.16;77.68;97060.06;29395;217;63005;-54
2023/09/10 00:22:01;;;;;;;0.30;0.30;;;;;;;20.16;77.97;97054.56;29395;203;63009;-54
2023/09/10 00:22:34;;;;;;;0.30;0.30;;;;;;;20.16;78.56;97054.56;29395;231;63005;-54
2023/09/10 00:23:06;;;;;;;0.30;0.30;;;;;;;20.15;78.59;97058.47;29394;196;64013;-54
2023/09/10 00:23:37;;;;;;;0.30;0.30;;;;;;;20.13;78.51;97055.25;29395;202;63004;-54
2023/09/10 00:24:10;;;;;;;0.30;0.30;;;;;;;20.12;78.28;97056.41;29395;198;63009;-54
2023/09/10 00:24:42;;;;;;;0.30;0.30;;;;;;;20.12;78.50;97056.41;29395;203;63015;-54
2023/09/10 00:25:13;;;;;;;0.30;0.30;;;;;;;20.11;78.61;97057.56;29395;199;63009;-54
2023/09/10 00:25:45;;;;;;;0.30;0.30;;;;;;;20.11;78.87;97057.56;29395;208;63000;-54
2023/09/10 00:26:17;;;;;;;0.30;0.30;;;;;;;20.10;78.99;97056.75;29395;218;63004;-54
2023/09/10 00:26:49;;;;;;;0.30;0.30;;;;;;;20.10;78.77;97055.97;29395;216;63004;-54
2023/09/10 00:27:20;;;;;;;0.30;0.30;;;;;;;20.10;79.22;97056.75;29394;207;64014;-55
2023/09/10 00:27:52;;;;;;;0.30;0.30;;;;;;;20.08;79.15;97054.38;29394;212;64009;-53
2023/09/10 00:28:24;;;;;;;0.30;0.30;;;;;;;20.09;78.95;97055.19;29395;224;63009;-54
2023/09/10 00:28:55;;;;;;;0.30;0.30;;;;;;;20.09;78.85;97052.44;29395;298;63005;-54
2023/09/10 00:29:26;;;;;;;0.30;0.30;;;;;;;20.08;78.76;97059.87;29394;222;64013;-54
2023/09/10 00:29:57;;;;;;;0.30;0.30;;;;;;;20.08;78.73;97059.09;29395;216;63005;-54
2023/09/10 00:30:30;;;;;;;0.30;0.30;;;;;;;20.08;78.87;97051.63;29395;221;63009;-54
2023/09/10 00:31:02;;;;;;;0.30;0.30;;;;;;;20.08;78.64;97054.38;29394;206;64017;-72
2023/09/10 00:31:34;;;;;;;0.30;0.30;;;;;;;20.10;79.01;97051.25;29395;202;63009;-54
2023/09/10 00:32:06;;;;;;;0.30;0.30;;;;;;;20.11;78.84;97058.34;29395;220;63016;-54
2023/09/10 00:32:37;;;;;;;0.30;0.30;;;;;;;20.11;78.43;97055.59;29395;259;63009;-54
2023/09/10 00:33:09;;;;;;;0.30;0.30;;;;;;;20.11;78.18;97055.59;29395;241;63004;-53
2023/09/10 00:33:41;;;;;;;0.30;0.30;;;;;;;20.14;78.04;97051.34;29395;219;63008;-72
2023/09/10 00:34:12;;;;;;;0.30;0.30;;;;;;;20.15;78.06;97055.69;29394;218;64009;-55
2023/09/10 00:34:44;;;;;;;0.30;0.30;;;;;;;20.16;77.90;97049.03;29395;233;63009;-72
2023/09/10 00:35:16;;;;;;;0.30;0.30;;;;;;;20.17;77.85;97056.16;29394;206;64005;-54
2023/09/10 00:35:47;;;;;;;0.30;0.30;;;;;;;20.17;77.80;97056.16;29395;214;63009;-55
2023/09/10 00:36:18;;;;;;;0.30;0.30;;;;;;;20.18;77.52;97047.53;29395;207;63005;-54
2023/09/10 00:36:50;;;;;;;0.30;0.30;;;;;;;20.20;77.61;97052.69;29395;302;63009;-54
2023/09/10 00:37:21;;;;;;;0.30;0.30;;;;;;;20.21;77.45;97054.31;29394;241;64009;-54
2023/09/10 00:37:53;;;;;;;0.30;0.30;;;;;;;20.21;77.57;97052.34;29395;204;63009;-54
2023/09/10 00:38:25;;;;;;;0.40;0.40;;;;;;;20.21;77.25;97048.78;29395;210;63004;-54
2023/09/10 00:38:56;;;;;;;0.30;0.30;;;;;;;20.21;77.24;97048.78;29395;242;63009;-54
2023/09/10 00:39:27;;;;;;;0.30;0.30;;;;;;;20.22;77.07;97047.66;29395;246;63004;-54
2023/09/10 00:39:59;;;;;;;0.30;0.30;;;;;;;20.22;77.31;97044.88;29394;297;64031;-53
2023/09/10 00:40:30;;;;;;;0.30;0.30;;;;;;;20.22;77.25;97051.19;29395;202;63004;-54
2023/09/10 00:41:06;;;;;;;0.30;0.30;;;;;;;20.23;77.42;97046.50;29395;275;63015;-54
2023/09/10 00:41:37;;;;;;;0.30;0.30;;;;;;;20.23;77.27;97050.06;29395;207;63019;-55
2023/09/10 00:42:09;;;;;;;0.30;0.30;;;;;;;20.24;77.43;97046.13;29395;220;63021;-71
2023/09/10 00:42:41;;;;;;;0.30;0.30;;;;;;;20.23;77.44;97046.50;29395;274;63005;-54
2023/09/10 00:43:12;;;;;;;0.30;0.30;;;;;;;20.23;77.48;97046.50;29394;224;64013;-54
2023/09/10 00:43:43;;;;;;;0.30;0.30;;;;;;;20.23;77.37;97049.25;29395;197;63005;-54
2023/09/10 00:44:15;;;;;;;0.30;0.30;;;;;;;20.22;77.76;97042.13;29395;202;63009;-54
2023/09/10 00:44:46;;;;;;;0.30;0.30;;;;;;;20.23;77.49;97043.72;29395;209;63015;-54
2023/09/10 00:45:17;;;;;;;0.30;0.30;;;;;;;20.23;77.82;97043.72;29395;215;63009;-55
2023/09/10 00:45:49;;;;;;;0.30;0.30;;;;;;;20.22;78.14;97047.66;29396;207;63004;-54
2023/09/10 00:46:21;;;;;;;0.30;0.30;;;;;;;20.20;78.74;97044.44;29395;198;64013;-54
2023/09/10 00:46:53;;;;;;;0.30;0.30;;;;;;;20.18;78.67;97043.97;29396;264;63004;-54
2023/09/10 00:47:25;;;;;;;0.30;0.30;;;;;;;20.15;78.54;97048.25;29396;215;63013;-54
2023/09/10 00:47:57;;;;;;;0.30;0.30;;;;;;;20.14;78.36;97045.84;29396;246;63010;-54
2023/09/10 00:48:29;;;;;;;0.30;0.30;;;;;;;20.12;78.62;97046.19;29396;215;63008;-54
2023/09/10 00:49:01;;;;;;;0.30;0.30;;;;;;;20.10;78.68;97044.97;29396;203;63004;-54
2023/09/10 00:49:33;;;;;;;0.30;0.30;;;;;;;20.08;78.85;97043.34;29396;220;63009;-54
2023/09/10 00:50:06;;;;;;;0.30;0.30;;;;;;;20.07;78.63;97040.94;29396;198;63007;-54
2023/09/10 00:50:37;;;;;;;0.30;0.30;;;;;;;20.06;79.08;97040.16;29395;260;64014;-54
2023/09/10 00:51:09;;;;;;;0.30;0.30;;;;;;;20.05;78.69;97044.06;29396;209;63017;-54
2023/09/10 00:51:41;;;;;;;0.30;0.30;;;;;;;20.04;79.02;97034.19;29396;212;63009;-55
2023/09/10 00:52:12;;;;;;;0.30;0.30;;;;;;;20.03;79.25;97038.09;29396;244;63005;-54
2023/09/10 00:52:50;;;;;;;0.28;0.28;;;;;;;20.01;79.02;97037.66;29396;209;63009;-54
2023/09/10 00:53:22;;;;;;;0.30;0.30;;;;;;;20.00;78.94;97041.53;29396;207;63011;-55
2023/09/10 00:53:55;;;;;;;0.30;0.30;;;;;;;19.99;79.43;97041.91;29396;219;63009;-53
2023/09/10 00:54:32;;;;;;;0.30;0.30;;;;;;;19.97;79.18;97036.75;29396;240;63004;-54
2023/09/10 00:55:06;;;;;;;0.30;0.30;;;;;;;19.96;79.65;97031.56;29396;226;63009;-54
2023/09/10 00:55:40;;;;;;;0.30;0.30;;;;;;;19.94;79.56;97037.44;29395;272;64009;-72
2023/09/10 00:56:13;;;;;;;0.30;0.30;;;;;;;19.94;79.62;97036.63;29396;203;63008;-54
2023/09/10 00:56:45;;;;;;;0.30;0.30;;;;;;;19.94;79.43;97036.63;29396;252;63005;-54
2023/09/10 00:57:17;;;;;;;0.30;0.30;;;;;;;19.93;79.56;97035.81;29396;223;63009;-54
2023/09/10 00:57:49;;;;;;;0.30;0.30;;;;;;;19.93;79.53;97041.34;29396;231;63005;-54
2023/09/10 00:58:21;;;;;;;0.30;0.30;;;;;;;19.93;79.74;97038.59;29396;244;63017;-54
2023/09/10 00:58:53;;;;;;;0.30;0.30;;;;;;;19.93;79.41;97041.34;29396;222;63005;-54
2023/09/10 00:59:26;;;;;;;0.30;0.30;;;;;;;19.93;79.66;97035.81;29396;199;63018;-53
2023/09/10 00:59:58;;;;;;;0.30;0.30;;;;;;;19.94;79.49;97039.38;29396;208;63005;-54
2023/09/10 01:00:30;;;;;;;0.30;0.30;;;;;;;19.93;79.17;97030.31;29396;224;63009;-53
2023/09/10 01:01:03;;;;;;;0.30;0.30;;;;;;;19.92;79.26;97039.72;29395;202;64009;-54
2023/09/10 01:01:35;;;;;;;0.30;0.30;;;;;;;19.94;79.12;97039.38;29395;216;64013;-54
2023/09/10 01:02:08;;;;;;;0.30;0.30;;;;;;;19.94;79.06;97037.44;29396;206;63004;-72
2023/09/10 01:02:43;;;;;;;0.30;0.30;;;;;;;19.93;79.17;97030.31;29396;280;63009;-54
2023/09/10 01:03:15;;;;;;;0.30;0.30;;;;;;;19.94;79.17;97036.63;29395;222;64009;-54
2023/09/10 01:03:47;;;;;;;0.30;0.30;;;;;;;19.94;78.93;97037.44;29396;196;63014;-54
2023/09/10 01:04:21;;;;;;;0.30;0.30;;;;;;;19.94;78.74;97042.94;29396;202;63005;-54
2023/09/10 01:04:52;;;;;;;0.30;0.30;;;;;;;19.94;78.80;97036.63;29396;206;63009;-54
2023/09/10 01:05:24;;;;;;;0.30;0.30;;;;;;;19.94;78.85;97042.94;29396;254;63005;-54
2023/09/10 01:05:55;;;;;;;0.30;0.30;;;;;;;19.92;79.29;97038.94;29396;251;63013;-55
2023/09/10 01:06:27;;;;;;;0.32;0.32;;;;;;;19.90;79.22;97042.03;29396;227;63005;-54
2023/09/10 01:06:59;;;;;;;0.30;0.30;;;;;;;19.89;78.93;97039.62;29396;266;63009;-54
2023/09/10 01:07:31;;;;;;;0.30;0.30;;;;;;;19.88;79.10;97041.56;29396;222;63011;-54
2023/09/10 01:08:03;;;;;;;0.30;0.30;;;;;;;19.87;79.06;97039.97;29395;210;64013;-56
2023/09/10 01:08:35;;;;;;;0.30;0.30;;;;;;;19.87;79.06;97034.47;29395;202;64004;-54
2023/09/10 01:09:06;;;;;;;0.30;0.30;;;;;;;19.86;79.64;97043.87;29396;204;63009;-54
2023/09/10 01:09:37;;;;;;;0.30;0.30;;;;;;;19.86;79.32;97038.38;29396;219;63004;-54
2023/09/10 01:10:10;;;;;;;0.30;0.30;;;;;;;19.86;79.52;97045.84;29396;224;63009;-54
2023/09/10 01:10:58;;;;;;;0.30;0.30;;;;;;;19.86;79.41;97045.84;29396;308;63007;-54
2023/09/10 01:12:12;;;;;;;0.30;0.30;;;;;;;19.85;79.60;97044.22;29396;214;63008;-54
2023/09/10 01:13:09;;;;;;;0.30;0.30;;;;;;;19.84;79.62;97035.16;29395;197;64009;-54
2023/09/10 01:14:00;;;;;;;0.30;0.30;;;;;;;19.84;79.64;97045.38;29396;252;63009;-52
2023/09/10 01:15:10;;;;;;;0.30;0.30;;;;;;;19.84;79.54;97046.19;29396;273;63005;-54
2023/09/10 01:15:55;;;;;;;0.30;0.30;;;;;;;19.85;78.92;97044.22;29396;325;63018;-54
2023/09/10 01:16:57;;;;;;;0.30;0.30;;;;;;;19.84;78.38;97035.16;29396;203;63000;-55
2023/09/10 01:17:42;;;;;;;0.30;0.30;;;;;;;19.87;78.53;97036.41;29418;233;63009;-54
2023/09/10 01:18:28;;;;;;;0.30;0.30;;;;;;;19.88;78.02;97035.28;29395;224;64009;-54
2023/09/10 01:19:15;;;;;;;0.30;0.30;;;;;;;19.90;77.74;97035.72;29396;201;63008;-53
2023/09/10 01:20:31;;;;;;;0.30;0.30;;;;;;;19.92;77.06;97038.94;29396;271;63005;-56
2023/09/10 01:21:41;;;;;;;0.30;0.30;;;;;;;19.94;77.21;97037.44;29396;226;63009;-54
2023/09/10 01:22:32;;;;;;;0.30;0.30;;;;;;;19.93;77.78;97030.31;29395;279;64009;-54
2023/09/10 01:23:14;;;;;;;0.32;0.32;;;;;;;19.92;77.71;97036.97;29378;287;125023;-54
2023/09/10 01:24:26;;;;;;;0.30;0.30;;;;;;;19.90;78.11;97038.47;29375;204;63004;-54
2023/09/10 01:24:59;;;;;;;0.40;0.40;;;;;;;19.89;78.16;97039.62;29417;218;64013;-53
2023/09/10 01:25:33;;;;;;;0.30;0.30;;;;;;;19.88;78.46;97038.81;29395;265;64009;-54
2023/09/10 01:26:05;;;;;;;0.40;0.40;;;;;;;19.88;78.67;97049.84;29396;202;63008;-54
2023/09/10 01:26:41;;;;;;;0.40;0.40;;;;;;;19.87;78.40;97039.97;29396;227;63010;-54
2023/09/10 01:27:13;;;;;;;0.30;0.30;;;;;;;19.86;78.65;97043.87;29396;325;63009;-54
2023/09/10 01:27:46;;;;;;;0.30;0.30;;;;;;;19.87;78.54;97041.94;29396;289;63005;-54
2023/09/10 01:28:18;;;;;;;0.30;0.30;;;;;;;19.85;78.60;97045.03;29395;285;64014;-54
2023/09/10 01:28:49;;;;;;;0.30;0.30;;;;;;;19.85;78.45;97047.78;29396;202;63005;-54
2023/09/10 01:29:23;;;;;;;0.30;0.30;;;;;;;19.84;78.59;97043.44;29396;238;63009;-54
2023/09/10 01:29:55;;;;;;;0.30;0.30;;;;;;;19.84;78.21;97045.38;29397;204;63005;-54
2023/09/10 01:30:27;;;;;;;0.30;0.30;;;;;;;19.84;78.50;97039.88;29397;212;63009;-54
2023/09/10 01:30:58;;;;;;;0.30;0.30;;;;;;;19.83;78.33;97035.50;29397;257;63004;-54
2023/09/10 01:31:31;;;;;;;0.30;0.30;;;;;;;19.83;78.43;97047.31;29397;224;63009;-54
2023/09/10 01:32:05;;;;;;;0.30;0.30;;;;;;;19.82;78.59;97045.72;29397;234;63004;-54
2023/09/10 01:33:11;;;;;;;0.30;0.30;;;;;;;19.82;78.26;97042.97;29396;260;64013;-55
2023/09/10 01:33:50;;;;;;;0.30;0.30;;;;;;;19.83;78.17;97041.81;29396;202;64008;-54
2023/09/10 01:34:27;;;;;;;0.30;0.30;;;;;;;19.83;78.11;97025.31;29397;222;63018;-54
2023/09/10 01:35:48;;;;;;;0.30;0.30;;;;;;;19.85;77.91;97033.22;29397;298;63005;-54
2023/09/10 01:36:38;;;;;;;0.30;0.30;;;;;;;19.85;77.60;97031.25;29397;219;63009;-54
2023/09/10 01:37:40;;;;;;;0.30;0.30;;;;;;;19.85;77.70;97039.53;29396;245;64009;-55
2023/09/10 01:38:20;;;;;;;;;;;;;;;19.83;77.97;97041.81;29997;983;6004;-54
2023/09/10 01:39:38;;;;;;;0.30;0.30;;;;;;;19.79;77.79;97038.16;29400;284;63009;-54
2023/09/10 01:40:16;;;;;;;0.30;0.30;;;;;;;19.78;78.41;97038.50;29396;222;64009;-72
2023/09/10 01:41:00;;;;;;;0.30;0.30;;;;;;;19.75;78.42;97037.28;29397;210;63008;-54
2023/09/10 01:41:32;;;;;;;0.30;0.30;;;;;;;19.72;78.75;97038.78;29397;270;63005;-54
2023/09/10 01:42:08;;;;;;;0.30;0.30;;;;;;;19.71;79.66;97039.13;29397;217;63009;-53
2023/09/10 01:42:41;;;;;;;0.30;0.30;;;;;;;19.66;80.05;97042.13;29396;197;63005;-53
2023/09/10 01:43:12;;;;;;;0.30;0.30;;;;;;;19.64;79.39;97038.91;29396;238;63009;-54
2023/09/10 01:43:45;;;;;;;0.40;0.40;;;;;;;19.63;79.45;97043.59;29396;203;63005;-53
2023/09/10 01:44:18;;;;;;;0.30;0.30;;;;;;;19.62;79.83;97035.69;29396;203;63009;-54
2023/09/10 01:44:52;;;;;;;0.30;0.30;;;;;;;19.62;79.54;97041.19;29396;283;63005;-54
2023/09/10 01:45:25;;;;;;;0.30;0.30;;;;;;;19.61;79.77;97031.34;29395;224;64013;-73
2023/09/10 01:45:56;;;;;;;0.30;0.30;;;;;;;19.61;79.59;97034.09;29396;196;63004;-54
2023/09/10 01:46:29;;;;;;;0.30;0.30;;;;;;;19.60;79.80;97038.00;29396;263;63009;-55
2023/09/10 01:47:01;;;;;;;0.30;0.30;;;;;;;19.60;79.71;97038.00;29396;203;63004;-53
2023/09/10 01:47:33;;;;;;;0.30;0.30;;;;;;;19.60;79.97;97038.00;29396;213;63009;-72
2023/09/10 01:48:05;;;;;;;0.30;0.30;;;;;;;19.60;79.68;97038.00;29396;222;63004;-55
2023/09/10 01:48:37;;;;;;;0.30;0.30;;;;;;;19.60;79.34;97038.78;29396;197;63009;-54
2023/09/10 01:49:08;;;;;;;0.30;0.30;;;;;;;19.60;79.31;97038.00;29396;238;63005;-71
2023/09/10 01:49:39;;;;;;;0.30;0.30;;;;;;;19.59;79.36;97042.69;29396;222;63009;-54
2023/09/10 01:50:11;;;;;;;0.30;0.30;;;;;;;19.61;78.73;97036.84;29396;225;63005;-52
2023/09/10 01:50:44;;;;;;;0.30;0.30;;;;;;;19.61;78.97;97039.59;29395;221;64013;-53
2023/09/10 01:51:17;;;;;;;0.30;0.30;;;;;;;19.62;78.65;97035.69;29396;256;63005;-53
2023/09/10 01:51:49;;;;;;;0.30;0.30;;;;;;;19.63;78.40;97040.06;29396;243;63009;-53
2023/09/10 01:52:20;;;;;;;0.30;0.30;;;;;;;19.63;78.54;97040.84;29396;252;63005;-54
2023/09/10 01:52:52;;;;;;;0.30;0.30;;;;;;;19.65;78.15;97048.78;29396;203;63009;-71
2023/09/10 01:53:23;;;;;;;0.30;0.30;;;;;;;19.65;78.36;97035.81;29396;207;63004;-55
2023/09/10 01:53:54;;;;;;;0.30;0.30;;;;;;;19.67;78.10;97041.78;29396;212;63009;-53
2023/09/10 01:54:26;;;;;;;0.30;0.30;;;;;;;19.67;78.26;97043.72;29396;248;63004;-53
2023/09/10 01:54:57;;;;;;;0.30;0.30;;;;;;;19.67;79.57;97046.47;29396;199;63009;-53
2023/09/10 01:55:28;;;;;;;0.30;0.30;;;;;;;19.63;79.46;97043.59;29396;230;63004;-53
2023/09/10 01:56:00;;;;;;;0.30;0.30;;;;;;;19.62;79.32;97052.22;29395;219;64013;-53
2023/09/10 01:56:31;;;;;;;0.30;0.30;;;;;;;19.60;79.81;97043.50;29396;236;63005;-53
2023/09/10 01:57:03;;;;;;;0.30;0.30;;;;;;;19.58;79.58;97037.53;29396;203;63009;-53
2023/09/10 01:57:34;;;;;;;0.30;0.30;;;;;;;19.57;79.25;97042.25;29396;246;63009;-53
2023/09/10 01:58:06;;;;;;;0.30;0.30;;;;;;;19.57;79.31;97038.69;29395;265;64013;-54
2023/09/10 01:58:38;;;;;;;0.30;0.30;;;;;;;19.58;79.51;97040.28;29396;215;63005;-53
2023/09/10 01:59:09;;;;;;;0.30;0.30;;;;;;;19.58;79.62;97045.78;29396;267;63025;-53
2023/09/10 01:59:40;;;;;;;0.30;0.30;;;;;;;19.58;79.58;97037.53;29396;221;63005;-53
2023/09/10 02:00:13;;;;;;;0.30;0.30;;;;;;;19.56;79.48;97037.88;29396;212;63009;-54
2023/09/10 02:00:47;;;;;;;0.30;0.30;;;;;;;19.57;79.93;97038.69;29395;197;63999;-53
2023/09/10 02:01:18;;;;;;;0.30;0.30;;;;;;;19.56;79.75;97037.09;29396;202;63009;-54
2023/09/10 02:01:53;;;;;;;0.30;0.30;;;;;;;19.55;79.56;97036.28;29396;237;63006;-53
2023/09/10 02:02:24;;;;;;;0.30;0.30;;;;;;;19.55;79.97;97035.47;29396;275;63009;-54
2023/09/10 02:02:55;;;;;;;0.30;0.30;;;;;;;19.54;80.14;97039.38;29396;240;63004;-54
2023/09/10 02:03:27;;;;;;;0.30;0.30;;;;;;;19.52;80.01;97041.69;29396;202;63008;-54
2023/09/10 02:03:58;;;;;;;0.30;0.30;;;;;;;19.52;80.01;97038.91;29396;207;63005;-53
2023/09/10 02:04:30;;;;;;;0.40;0.40;;;;;;;19.50;80.82;97038.44;29396;244;63009;-53
2023/09/10 02:05:02;;;;;;;0.30;0.30;;;;;;;19.49;81.03;97047.84;29396;284;63009;-53
2023/09/10 02:05:35;;;;;;;0.30;0.30;;;;;;;19.46;80.95;97043.03;29396;221;63009;-53
2023/09/10 02:06:07;;;;;;;0.30;0.30;;;;;;;19.43;80.83;97033.50;29395;207;64009;-53
2023/09/10 02:06:38;;;;;;;0.30;0.30;;;;;;;19.41;80.83;97036.59;29396;198;63009;-54
2023/09/10 02:07:14;;;;;;;0.30;0.30;;;;;;;19.40;80.57;97040.50;29396;202;63005;-53
2023/09/10 02:07:46;;;;;;;0.30;0.30;;;;;;;19.41;80.64;97044.06;29395;228;64009;-53
2023/09/10 02:08:17;;;;;;;0.30;0.30;;;;;;;19.39;81.08;97033.44;29396;210;63004;-54
2023/09/10 02:08:48;;;;;;;0.30;0.30;;;;;;;19.38;80.74;97036.53;29396;209;63004;-53
2023/09/10 02:09:19;;;;;;;0.30;0.30;;;;;;;19.36;80.95;97034.13;29396;246;63004;-71
2023/09/10 02:09:51;;;;;;;0.30;0.30;;;;;;;19.37;81.33;97037.69;29395;219;64013;-54
2023/09/10 02:10:23;;;;;;;0.30;0.30;;;;;;;19.37;81.17;97035.72;29396;254;63004;-53
2023/09/10 02:10:55;;;;;;;0.30;0.30;;;;;;;19.37;81.36;97040.44;29396;219;63008;-54
2023/09/10 02:11:27;;;;;;;0.30;0.30;;;;;;;19.37;81.40;97040.44;29396;239;63005;-71
2023/09/10 02:11:58;;;;;;;0.30;0.30;;;;;;;19.36;81.35;97036.06;29395;204;64014;-53
2023/09/10 02:12:30;;;;;;;0.30;0.30;;;;;;;19.36;80.98;97038.81;29396;197;63009;-53
2023/09/10 02:13:01;;;;;;;0.30;0.30;;;;;;;19.35;81.01;97038.03;29396;197;63009;-53
2023/09/10 02:13:32;;;;;;;0.30;0.30;;;;;;;19.36;81.09;97036.87;29396;212;63005;-53
2023/09/10 02:14:04;;;;;;;0.30;0.30;;;;;;;19.35;80.82;97032.50;29396;265;63009;-53
2023/09/10 02:14:35;;;;;;;0.30;0.30;;;;;;;19.35;81.03;97027.00;29396;224;63005;-71
2023/09/10 02:15:08;;;;;;;0.30;0.30;;;;;;;19.36;80.55;97028.63;29396;327;63009;-53
2023/09/10 02:15:40;;;;;;;0.30;0.30;;;;;;;19.37;80.83;97034.91;29396;271;63004;-53
2023/09/10 02:16:11;;;;;;;0.30;0.30;;;;;;;19.38;80.84;97031.03;29396;235;63017;-54
2023/09/10 02:16:42;;;;;;;0.30;0.30;;;;;;;19.38;80.78;97031.03;29396;261;63004;-53
2023/09/10 02:17:14;;;;;;;0.30;0.30;;;;;;;19.39;80.23;97033.44;29395;229;64013;-54
2023/09/10 02:17:45;;;;;;;0.30;0.30;;;;;;;19.39;80.34;97027.94;29396;196;63000;-53
2023/09/10 02:18:17;;;;;;;0.30;0.30;;;;;;;19.41;80.14;97031.09;29396;272;63008;-53
2023/09/10 02:18:48;;;;;;;0.30;0.30;;;;;;;19.41;80.25;97036.59;29396;198;63004;-53
2023/09/10 02:19:21;;;;;;;0.30;0.30;;;;;;;19.41;80.50;97025.59;29396;220;63016;-53
2023/09/10 02:19:53;;;;;;;0.30;0.30;;;;;;;19.43;80.10;97028.81;29396;250;63005;-53
2023/09/10 02:20:24;;;;;;;0.30;0.30;;;;;;;19.43;80.17;97033.50;29395;197;64014;-53
2023/09/10 02:20:55;;;;;;;0.30;0.30;;;;;;;19.45;80.37;97033.16;29396;215;63005;-71
2023/09/10 02:21:26;;;;;;;0.30;0.30;;;;;;;19.45;80.31;97035.91;29396;199;63009;-54
2023/09/10 02:21:58;;;;;;;0.30;0.30;;;;;;;19.45;80.09;97025.72;29397;289;63005;-53
2023/09/10 02:22:29;;;;;;;0.30;0.30;;;;;;;19.45;79.86;97030.41;29396;272;63027;-54
2023/09/10 02:23:00;;;;;;;0.30;0.30;;;;;;;19.46;79.96;97029.25;29395;225;64009;-53
2023/09/10 02:23:31;;;;;;;0.30;0.30;;;;;;;19.46;80.22;97037.53;29395;223;64013;-53
2023/09/10 02:24:04;;;;;;;0.30;0.30;;;;;;;19.46;80.05;97034.78;29395;287;64004;-70
2023/09/10 02:24:35;;;;;;;0.35;0.35;;;;;;;19.45;80.15;97030.41;29396;225;63009;-53
2023/09/10 02:25:08;;;;;;;0.30;0.30;;;;;;;19.42;80.47;97027.22;29396;297;63004;-71
2023/09/10 02:25:39;;;;;;;0.30;0.30;;;;;;;19.42;80.39;97029.97;29396;224;63008;-55
2023/09/10 02:26:11;;;;;;;0.30;0.30;;;;;;;19.42;80.40;97034.66;29396;228;63004;-54
2023/09/10 02:26:42;;;;;;;0.30;0.30;;;;;;;19.42;80.56;97034.66;29396;197;63009;-71
2023/09/10 02:27:13;;;;;;;0.30;0.30;;;;;;;19.41;80.56;97031.09;29396;215;63005;-53
2023/09/10 02:27:44;;;;;;;0.30;0.30;;;;;;;19.40;80.37;97037.75;29396;197;63009;-53
2023/09/10 02:28:15;;;;;;;0.30;0.30;;;;;;;19.39;80.62;97036.19;29396;197;63005;-53
2023/09/10 02:28:48;;;;;;;0.30;0.30;;;;;;;19.39;80.72;97033.44;29395;209;64013;-53
2023/09/10 02:29:19;;;;;;;0.30;0.30;;;;;;;19.38;80.82;97031.81;29396;310;63011;-55
2023/09/10 02:29:50;;;;;;;0.30;0.30;;;;;;;19.39;80.77;97035.37;29396;255;63009;-53
2023/09/10 02:30:22;;;;;;;0.30;0.30;;;;;;;19.38;81.08;97031.03;29396;209;63005;-53
2023/09/10 02:30:53;;;;;;;0.30;0.30;;;;;;;19.36;81.09;97025.88;29395;196;64013;-54
2023/09/10 02:31:25;;;;;;;0.30;0.30;;;;;;;19.38;81.02;97031.81;29396;330;63004;-53
2023/09/10 02:31:56;;;;;;;0.30;0.30;;;;;;;19.39;80.98;97038.94;29397;209;63009;-53
2023/09/10 02:32:27;;;;;;;0.30;0.30;;;;;;;19.40;81.34;97031.47;29397;203;63004;-53
2023/09/10 02:32:58;;;;;;;0.30;0.30;;;;;;;19.40;81.02;97029.50;29397;225;63009;-54
2023/09/10 02:33:30;;;;;;;0.30;0.30;;;;;;;19.41;81.35;97030.31;29397;214;63004;-53
2023/09/10 02:34:01;;;;;;;0.30;0.30;;;;;;;19.40;80.96;97032.25;29397;213;63009;-53
2023/09/10 02:34:32;;;;;;;0.30;0.30;;;;;;;19.40;81.44;97034.22;29397;268;63005;-53
2023/09/10 02:35:04;;;;;;;0.30;0.30;;;;;;;19.39;81.31;97027.94;29394;223;64014;-53
2023/09/10 02:35:35;;;;;;;0.30;0.30;;;;;;;19.37;81.36;97040.44;29395;262;63005;-70
2023/09/10 02:36:07;;;;;;;0.30;0.30;;;;;;;19.36;81.41;97036.87;29395;228;63009;-54
2023/09/10 02:36:38;;;;;;;0.30;0.30;;;;;;;19.35;81.38;97035.28;29395;237;63005;-53
2023/09/10 02:37:13;;;;;;;0.30;0.30;;;;;;;19.34;81.66;97036.41;29394;220;64013;-71
2023/09/10 02:37:44;;;;;;;0.30;0.30;;;;;;;19.36;81.70;97033.31;29395;204;63004;-53
2023/09/10 02:38:15;;;;;;;0.30;0.30;;;;;;;19.35;82.13;97037.22;29395;216;63009;-71
2023/09/10 02:38:46;;;;;;;0.40;0.40;;;;;;;19.34;82.21;97030.91;29395;232;63004;-71
2023/09/10 02:39:17;;;;;;;0.30;0.30;;;;;;;19.34;82.29;97028.16;29395;254;63009;-53
2023/09/10 02:39:49;;;;;;;0.30;0.30;;;;;;;19.34;82.55;97033.66;29395;310;63004;-53
2023/09/10 02:40:20;;;;;;;0.35;0.35;;;;;;;19.33;82.42;97034.81;29393;210;64013;-53
2023/09/10 02:40:52;;;;;;;0.30;0.30;;;;;;;19.34;82.58;97032.88;29395;217;63004;-52
2023/09/10 02:41:26;;;;;;;0.30;0.30;;;;;;;19.33;82.35;97031.25;29395;225;63017;-70
2023/09/10 02:41:57;;;;;;;0.30;0.30;;;;;;;19.33;82.67;97028.50;29395;230;63005;-71